Date,TemperatureHighF,TemperatureAvgF,TemperatureLowF,DewpointHighF,DewpointAvgF,DewpointLowF,HumidityHigh,HumidityAvg,HumidityLow,PressureMaxIn,PressureMinIn,WindSpeedMaxMPH,WindSpeedAvgMPH,GustSpeedMaxMPH,PrecipitationSumIn
2013-1-1,25,9,-11,7,0,-16,91,68,42,0.00,40.00,11,6,17,0.00
2013-1-2,27,17,3,9,5,-2,82,60,42,0.00,40.00,15,9,22,0.00
2013-1-3,33,16,-2,4,-2,-9,73,48,18,0.00,40.00,17,6,22,0.00
2013-1-4,43,13,-7,6,-4,-13,80,52,16,0.00,40.00,8,2,11,0.00
2013-1-5,38,17,-4,8,0,-10,77,52,24,0.00,40.00,10,3,14,0.00
2013-1-6,33,21,11,8,3,0,69,49,25,0.00,40.00,9,2,14,0.00
2013-1-7,36,24,9,21,8,-3,87,53,31,0.00,40.00,10,5,14,0.00
2013-1-8,38,25,10,27,21,8,96,84,61,0.00,40.00,11,4,17,0.00
2013-1-9,40,24,3,28,16,-1,96,73,50,0.00,40.00,19,8,30,0.00
2013-1-10,36,19,6,22,14,1,92,79,55,0.00,40.00,14,9,30,0.00
2013-1-11,13,4,-15,5,-1,-20,88,79,56,0.00,40.00,12,5,22,0.00
2013-1-12,8,-7,-23,1,-13,-31,87,74,57,0.00,40.00,8,2,15,0.00
2013-1-13,5,-7,-26,-3,-13,-32,86,74,63,0.00,40.00,13,6,20,0.00
2013-1-14,5,-6,-26,-4,-13,-32,84,73,64,0.00,40.00,13,6,20,0.00
2013-1-15,23,13,4,13,8,-2,91,78,66,0.00,40.00,11,6,18,0.00
2013-1-16,33,23,15,14,10,5,89,60,34,0.00,40.00,15,10,23,0.00
2013-1-17,38,24,14,10,5,3,67,46,28,0.00,40.00,13,8,19,0.00
2013-1-18,41,16,4,7,2,-3,74,55,23,0.00,40.00,8,4,12,0.00
2013-1-19,33,16,5,7,2,-3,70,54,29,0.00,40.00,8,5,10,0.00
2013-1-20,43,27,7,6,2,-5,70,38,13,0.00,40.00,12,7,17,0.00
2013-1-21,46,27,10,13,7,1,82,45,22,0.00,40.00,12,5,17,0.00
2013-1-22,49,26,5,18,7,1,87,54,14,0.00,40.00,13,3,20,0.00
2013-1-23,39,27,12,23,13,4,78,57,31,0.00,40.00,6,1,13,0.00
2013-1-24,38,34,32,33,29,20,97,85,50,0.00,40.00,11,4,22,0.00
2013-1-25,36,33,31,35,32,30,97,97,95,0.00,40.00,11,3,16,0.00
2013-1-26,36,33,31,35,32,30,98,96,85,0.00,40.00,10,3,19,0.00
2013-1-27,34,26,13,33,24,6,97,92,77,0.00,40.00,21,10,38,0.00
2013-1-28,19,8,-15,12,2,-20,93,77,58,0.00,40.00,11,3,18,0.00
2013-1-29,25,20,10,21,16,8,94,87,76,0.00,40.00,19,7,32,0.00
2013-1-30,35,27,6,27,22,4,96,81,64,0.00,40.00,13,6,23,0.00
2013-1-31,42,28,11,27,22,9,94,77,49,0.00,40.00,10,3,15,0.00
2013-2-1,44,24,7,28,11,5,96,65,21,0.00,40.00,6,2,11,0.00
2013-2-2,45,28,12,23,17,9,91,66,27,0.00,40.00,5,2,8,0.00
2013-2-3,44,30,18,20,17,11,84,62,28,0.00,40.00,10,3,18,0.00
2013-2-4,46,26,9,15,8,2,93,58,17,0.00,40.00,6,2,12,0.00
2013-2-5,47,32,12,19,12,7,82,48,22,0.00,40.00,13,4,21,0.00
2013-2-6,37,27,8,18,13,4,88,57,33,0.00,40.00,9,4,16,0.00
2013-2-7,40,25,4,17,10,0,89,56,30,0.00,40.00,20,8,37,0.00
2013-2-8,31,24,19,25,20,17,95,84,55,0.00,40.00,12,6,23,0.00
2013-2-9,22,18,13,18,14,9,93,86,75,0.00,40.00,14,7,25,0.00
2013-2-10,21,16,6,17,12,3,90,86,78,0.00,40.00,15,7,23,0.00
2013-2-11,20,8,-9,6,0,-12,90,72,45,0.00,40.00,16,6,24,0.00
2013-2-12,29,14,-9,17,7,-13,93,74,55,0.00,40.00,9,4,13,0.00
2013-2-13,38,23,6,23,16,3,92,75,49,0.00,40.00,10,4,15,0.00
2013-2-14,34,22,5,22,15,2,96,78,51,0.00,40.00,11,4,17,0.00
2013-2-15,42,24,7,20,13,4,93,67,35,0.00,40.00,13,5,22,0.00
2013-2-16,48,27,1,21,8,-3,93,54,13,0.00,40.00,13,4,20,0.00
2013-2-17,36,27,6,16,10,1,87,51,35,0.00,40.00,13,5,22,0.00
2013-2-18,39,22,-1,15,4,-9,88,51,16,0.00,40.00,13,5,20,0.00
2013-2-19,37,30,25,24,14,8,93,53,35,0.00,40.00,17,9,31,0.00
2013-2-20,27,22,6,23,18,-1,94,83,66,0.00,40.00,17,8,26,0.00
2013-2-21,24,13,-2,7,2,-6,89,65,35,0.00,40.00,12,6,22,0.00
2013-2-22,29,19,-2,16,9,-5,91,67,48,0.00,40.00,11,5,19,0.00
2013-2-23,29,20,14,16,10,2,90,66,47,0.00,40.00,17,9,30,0.00
2013-2-24,23,14,-3,11,6,-6,89,70,40,0.00,40.00,16,8,25,0.00
2013-2-25,39,21,-4,19,4,-13,92,55,17,0.00,40.00,21,7,31,0.00
2013-2-26,25,16,0,12,6,-4,90,68,34,0.00,40.00,13,6,21,0.00
2013-2-27,34,18,0,9,3,-10,85,57,17,0.00,40.00,10,4,16,0.00
2013-2-28,41,24,4,17,9,-1,87,59,28,0.00,40.00,12,3,34,0.00
2013-3-1,50,32,15,27,21,12,93,68,36,0.00,40.00,7,2,11,0.00
2013-3-2,50,36,17,27,22,15,94,61,33,0.00,40.00,13,5,23,0.00
2013-3-3,43,36,27,31,26,18,94,70,37,0.00,40.00,11,4,17,0.00
2013-3-4,40,29,16,28,18,12,91,65,37,0.00,40.00,11,3,17,0.00
2013-3-5,47,31,12,22,16,9,90,57,28,0.00,40.00,20,8,36,0.00
2013-3-6,47,37,29,27,22,10,82,58,22,0.00,40.00,22,12,40,0.00
2013-3-7,38,31,25,26,21,14,95,69,43,0.00,40.00,14,8,24,0.00
2013-3-8,32,28,25,28,26,24,95,91,76,0.00,40.00,15,7,23,0.00
2013-3-9,37,29,23,26,20,14,95,72,46,0.00,40.00,18,12,29,0.00
2013-3-10,44,30,16,19,13,8,82,52,28,0.00,40.00,10,4,15,0.00
2013-3-11,46,31,15,25,17,9,87,60,25,0.00,40.00,8,4,18,0.00
2013-3-12,52,35,19,27,21,16,92,64,29,0.00,40.00,7,2,13,0.00
2013-3-13,61,40,22,32,21,15,90,55,17,0.00,40.00,10,3,17,0.00
2013-3-14,64,47,25,26,22,16,84,42,17,0.00,40.00,14,5,25,0.00
2013-3-15,60,46,26,27,22,16,83,43,19,0.00,40.00,9,3,16,0.00
2013-3-16,53,42,27,25,18,6,75,44,16,0.00,40.00,13,4,23,0.00
2013-3-17,47,37,24,22,13,5,84,42,19,0.00,40.00,20,8,34,0.00
2013-3-18,47,33,17,20,12,7,85,47,20,0.00,40.00,12,4,24,0.00
2013-3-19,50,39,30,28,22,16,80,53,31,0.00,40.00,10,4,17,0.00
2013-3-20,53,44,34,32,23,19,69,44,31,0.00,40.00,15,7,30,0.00
2013-3-21,41,34,25,25,15,6,89,48,25,0.00,40.00,14,7,27,0.00
2013-3-22,33,24,12,16,8,1,84,54,28,0.00,40.00,15,6,27,0.00
2013-3-23,32,22,10,11,0,-10,84,43,18,0.00,40.00,10,6,20,0.00
2013-3-24,42,28,10,13,7,2,79,46,22,0.00,40.00,12,4,23,0.00
2013-3-25,52,38,25,17,13,9,61,38,21,0.00,40.00,11,6,25,0.00
2013-3-26,55,43,33,21,13,9,60,30,17,0.00,40.00,16,6,28,0.00
2013-3-27,56,42,27,21,17,7,74,41,15,0.00,40.00,13,6,24,0.00
2013-3-28,57,43,23,30,23,18,84,48,24,0.00,40.00,12,5,24,0.00
2013-3-29,57,42,26,31,26,22,89,58,27,0.00,40.00,13,4,22,0.00
2013-3-30,60,44,25,31,24,-100,89,52,24,0.00,40.00,9,3,18,0.00
2013-3-31,43,38,36,28,26,25,67,63,54,0.00,40.00,4,1,9,0.00
2013-4-4,52,52,52,24,24,24,33,33,33,0.00,40.00,8,8,16,0.00
2013-4-5,39,39,39,28,28,28,64,64,64,0.00,40.00,0,0,2,0.00
2013-4-11,42,42,42,17,17,17,36,36,36,0.00,40.00,5,5,9,0.00
2013-4-12,46,46,46,2,2,2,16,16,16,0.00,40.00,4,4,9,0.00
2013-4-18,31,31,31,15,15,15,51,51,51,0.00,40.00,0,0,0,0.00
2013-4-22,56,47,31,22,15,4,37,28,21,0.00,40.00,18,11,28,0.00
2013-4-23,50,34,22,13,6,-3,62,35,11,0.00,40.00,17,8,26,0.00
2013-4-24,52,40,26,12,8,1,49,27,14,0.00,40.00,12,8,22,0.00
2013-4-25,58,42,23,12,6,-2,57,28,9,0.00,40.00,12,6,26,0.00
2013-4-26,61,42,19,16,10,6,61,32,11,0.00,40.00,11,3,21,0.00
2013-4-27,66,47,25,25,19,14,71,39,14,0.00,40.00,10,3,40,0.00
2013-4-28,69,50,27,27,20,16,73,38,14,0.00,40.00,12,5,24,0.00
2013-4-29,70,53,27,28,23,19,75,36,18,0.00,40.00,16,6,32,0.00
2013-4-30,59,49,29,31,16,-10,76,30,11,0.00,40.00,17,10,29,0.00
2013-5-1,46,34,13,4,-3,-11,44,22,10,0.00,40.00,17,10,29,0.00
2013-5-2,57,41,22,6,2,-3,49,23,9,0.00,40.00,14,8,22,0.00
2013-5-3,65,46,18,9,4,-1,52,22,9,0.00,40.00,12,5,26,0.00
2013-5-4,57,45,34,20,14,6,50,29,18,0.00,40.00,11,6,29,0.00
2013-5-5,61,52,38,25,18,12,55,27,16,0.00,40.00,14,8,27,0.00
2013-5-6,54,43,29,35,27,18,88,56,34,0.00,40.00,17,6,29,0.00
2013-5-7,47,35,25,37,31,23,94,87,59,0.00,40.00,11,4,20,0.00
2013-5-8,55,39,21,38,30,19,96,72,34,0.00,40.00,14,3,28,0.00
2013-5-9,61,46,31,38,29,18,94,57,23,0.00,40.00,24,8,36,0.00
2013-5-10,64,49,27,31,25,-100,74,44,24,0.00,40.00,15,6,26,0.00
2013-5-11,71,52,29,31,22,-100,80,39,13,0.00,40.00,9,3,21,0.00
2013-5-12,76,55,31,30,23,19,70,35,13,0.00,40.00,10,3,21,0.00
2013-5-13,78,60,33,32,22,14,67,30,9,0.00,40.00,15,6,29,0.00
2013-5-14,76,62,37,30,20,15,51,23,11,0.00,40.00,15,5,30,0.00
2013-5-15,74,59,41,34,25,16,61,30,12,0.00,40.00,13,7,26,0.00
2013-5-16,67,49,31,31,6,-100,55,30,12,0.00,40.00,15,6,37,0.00
2013-5-17,53,44,31,44,34,-100,94,75,48,0.00,40.00,11,5,22,0.00
2013-5-18,57,43,24,39,26,21,95,58,25,0.00,40.00,11,5,27,0.00
2013-5-19,50,40,30,37,29,22,95,66,39,0.00,40.00,15,6,26,0.00
2013-5-20,61,42,21,28,23,17,86,52,25,0.00,40.00,13,5,26,0.00
2013-5-21,69,52,25,31,20,11,83,37,12,0.00,40.00,18,10,34,0.00
2013-5-22,69,54,34,24,16,9,54,23,11,0.00,40.00,21,10,47,0.00
2013-5-23,62,45,28,24,13,-2,73,34,9,0.00,40.00,22,11,39,0.00
2013-5-24,67,48,17,11,4,-2,47,20,9,0.00,40.00,16,7,41,0.00
2013-5-25,69,56,30,17,9,1,38,17,9,0.00,40.00,17,9,33,0.00
2013-5-26,68,57,38,18,13,3,33,18,11,0.00,40.00,18,9,31,0.00
2013-5-27,67,50,26,39,17,0,86,33,7,0.00,40.00,15,6,52,0.00
2013-5-28,48,41,32,40,34,27,93,76,52,0.00,40.00,16,6,28,0.00
2013-5-29,60,41,24,34,27,22,93,63,23,0.00,40.00,16,6,28,0.00
2013-6-4,50,50,50,-100,-100,-100,0,0,100,0.00,40.00,7,7,7,0.00
2013-6-5,50,50,50,-100,-100,-100,0,0,100,0.00,40.00,7,7,7,0.00
2013-6-6,50,50,50,-100,-100,-100,0,0,100,0.00,40.00,7,7,7,0.00
2013-6-7,50,50,50,-100,-100,-100,0,0,100,0.00,40.00,7,7,7,0.00
2013-6-8,50,50,50,-100,-100,-100,0,0,100,0.00,40.00,7,7,7,0.00
2013-6-9,50,50,50,-100,-100,-100,0,0,100,0.00,40.00,7,7,7,0.00
2013-6-10,50,50,50,-100,-100,-100,0,0,100,0.00,40.00,7,7,7,0.00
2013-6-12,50,50,50,-100,-100,-100,0,0,100,0.00,40.00,7,-33,7,0.00
2013-6-13,50,50,50,-100,-100,-100,0,0,100,0.00,40.00,7,-64,7,0.00
2013-6-14,50,50,50,-100,-100,-100,0,0,100,0.00,40.00,7,-127,7,0.00
2013-6-15,50,50,50,-100,-100,-100,0,0,100,0.00,40.00,7,-77,7,0.00
2013-6-16,50,50,50,-100,-100,-100,0,0,100,0.00,40.00,7,-137,7,0.00
2013-6-17,50,50,50,-100,-100,-100,0,0,100,0.00,40.00,7,-119,7,0.00
2013-6-18,50,50,50,-100,-100,-100,0,0,100,0.00,40.00,7,-137,7,0.00
2013-6-19,50,50,50,-100,-100,-100,0,0,100,0.00,40.00,7,-141,7,0.00
2013-6-20,50,50,50,-100,-100,-100,0,0,100,0.00,40.00,7,-141,7,0.00
2013-6-22,50,50,50,-100,-100,-100,0,0,100,0.00,40.00,7,-49,7,0.00
2013-6-23,50,50,50,-100,-100,-100,0,0,100,0.00,40.00,7,-40,7,0.00
2013-6-24,50,50,50,-100,-100,-100,0,0,100,0.00,40.00,7,-22,7,0.00
2013-7-31,82,76,63,38,33,28,32,21,14,0.00,40.00,15,11,34,0.00
2013-8-1,84,73,54,33,17,-100,39,16,5,0.00,40.00,21,-124,36,0.00
2013-8-2,70,62,45,15,14,10,24,16,12,0.00,40.00,8,-74,15,0.00
2013-8-5,82,74,63,25,22,19,22,15,10,0.00,40.00,11,-36,24,0.00
2013-8-6,84,72,50,24,16,11,23,12,9,0.00,40.00,10,-32,18,0.00
2013-8-12,79,71,64,13,11,8,11,10,7,0.00,40.00,7,6,17,0.00
2013-8-13,82,73,51,18,13,7,24,10,7,0.00,40.00,13,-6,25,0.00
2013-8-14,83,76,59,15,6,-100,16,8,5,0.00,40.00,14,-40,28,0.00
2013-8-15,82,70,46,26,5,-100,19,10,7,0.00,40.00,17,-8,30,0.00
2013-8-16,84,73,64,39,27,-100,39,21,12,0.00,40.00,13,-6,23,0.00
2013-8-17,84,74,61,49,35,-100,58,25,15,0.00,40.00,14,-6,27,1.00
2013-8-18,81,68,58,50,43,37,73,43,21,0.00,40.00,13,6,27,0.00
2013-8-19,80,62,53,48,37,-100,80,50,24,0.00,40.00,18,-5,29,0.00
2013-8-20,77,64,51,51,43,-100,68,51,29,0.00,40.00,15,-10,26,0.00
2013-8-21,80,65,46,50,42,35,87,50,20,0.00,40.00,14,5,25,0.00
2013-8-22,79,67,51,49,42,32,83,45,22,0.00,40.00,17,7,31,0.00
2013-8-23,75,66,50,45,42,39,71,42,28,0.00,40.00,15,7,26,0.00
2013-8-24,70,59,49,47,43,-100,76,57,40,0.00,40.00,21,7,38,0.00
2013-8-25,75,62,42,52,43,30,92,56,20,0.00,40.00,16,9,31,0.00
2013-8-26,68,60,52,51,48,44,93,67,42,0.00,40.00,13,8,22,0.00
2013-8-27,68,57,45,51,48,42,90,73,48,0.00,40.00,13,4,25,0.00
2013-8-28,77,69,57,51,46,40,67,46,31,0.00,40.00,15,7,28,0.00
2013-8-29,80,70,46,50,45,39,86,42,26,0.00,40.00,14,-23,24,0.00
2013-8-30,66,59,49,50,47,43,79,64,49,0.00,40.00,5,-24,9,0.00
2013-9-3,70,60,55,52,51,47,86,72,46,0.00,40.00,15,-72,25,1.00
2013-9-4,77,62,48,55,50,46,100,69,35,0.00,40.00,14,-38,26,6.00
2013-9-5,76,63,50,54,49,43,100,66,31,0.00,40.00,16,-32,29,0.00
2013-9-6,75,65,51,50,46,41,85,53,36,0.00,40.00,14,-22,27,0.00
2013-9-7,66,58,53,56,49,-100,92,75,54,0.00,40.00,10,-31,17,3.00
2013-9-8,72,58,47,53,48,36,100,75,27,0.00,40.00,7,-11,12,0.00
2013-9-9,73,59,42,48,40,27,100,57,19,0.00,40.00,11,4,19,0.00
2013-9-10,67,57,44,47,39,35,79,53,32,0.00,40.00,14,7,23,4.00
2013-9-11,54,51,48,52,49,44,100,92,70,0.00,40.00,7,2,12,14.00
2013-9-12,57,52,49,53,51,49,100,95,77,0.00,40.00,7,3,12,5.00
2013-9-13,64,53,48,53,28,-100,100,75,51,0.00,40.00,12,-10,21,4.00
2013-9-14,64,52,40,52,45,-100,100,79,50,0.00,40.00,13,3,20,1.00
2013-9-15,72,56,43,48,45,43,100,71,36,0.00,40.00,11,4,20,0.00
2013-9-16,75,65,50,47,42,36,78,44,26,0.00,40.00,14,8,26,0.00
2013-9-17,75,64,51,42,30,9,69,33,9,0.00,40.00,24,12,43,0.00
2013-9-18,52,46,37,28,26,23,64,46,34,0.00,40.00,7,3,13,0.00
2013-9-19,67,50,37,33,29,26,71,48,23,0.00,40.00,12,7,19,0.00
2013-9-20,71,56,33,31,27,20,79,38,16,0.00,40.00,17,7,32,0.00
2013-9-21,69,58,45,31,21,-100,51,27,14,0.00,40.00,26,12,49,0.00
2013-9-22,54,46,37,35,30,19,80,56,25,0.00,40.00,15,-16,27,0.00
2013-9-23,65,49,25,31,26,20,91,48,20,0.00,40.00,10,4,15,0.00
2013-9-24,68,60,37,23,22,20,56,24,17,0.00,40.00,19,12,34,0.00
2013-9-25,56,46,34,26,21,12,70,38,23,0.00,40.00,15,-4,30,0.00
2013-9-26,39,33,29,28,25,21,88,73,57,0.00,40.00,13,6,21,0.00
2013-9-27,46,36,24,30,25,17,93,66,32,0.00,40.00,11,6,20,0.00
2013-9-28,59,46,19,23,17,-100,86,37,21,0.00,40.00,13,7,24,0.00
2013-9-29,62,53,40,19,16,13,36,24,18,0.00,40.00,17,11,31,0.00
2013-9-30,69,57,44,25,18,13,39,23,16,0.00,40.00,13,-6,24,0.00
2013-10-1,65,58,53,23,22,20,30,25,18,0.00,40.00,10,6,22,0.00
2013-10-2,64,54,35,33,27,22,64,37,26,0.00,40.00,18,8,33,0.00
2013-10-3,42,36,23,18,13,9,62,39,27,0.00,40.00,19,-21,35,0.00
2013-10-4,43,33,23,20,17,11,80,54,29,0.00,40.00,17,-3,28,0.00
2013-10-5,56,36,20,19,14,3,74,45,12,0.00,40.00,9,6,17,0.00
2013-10-6,68,51,26,15,10,6,48,23,10,0.00,40.00,12,-10,23,0.00
2013-10-7,65,54,33,19,14,8,43,21,11,0.00,40.00,15,8,28,0.00
2013-10-8,59,48,28,15,11,8,46,24,14,0.00,40.00,9,5,18,0.00
2013-10-9,50,40,33,33,22,10,99,55,24,0.00,40.00,16,7,34,1.00
2013-10-10,44,36,30,37,33,30,100,88,65,0.00,40.00,10,-9,19,0.00
2013-10-11,51,37,28,36,27,17,100,75,28,0.00,40.00,9,3,21,0.00
2013-10-12,53,42,27,31,25,-100,89,57,34,0.00,40.00,13,-6,26,0.00
2013-10-13,43,42,41,28,28,27,58,57,55,0.00,40.00,11,9,20,0.00
2013-10-14,44,38,25,28,24,20,88,60,39,0.00,40.00,8,4,13,0.00
2013-10-15,40,32,25,30,24,19,100,72,45,0.00,40.00,15,8,25,0.00
2013-10-21,59,47,27,23,19,14,64,37,18,0.00,40.00,9,6,16,0.00
2013-10-22,63,49,24,24,19,14,74,35,15,0.00,40.00,6,3,11,0.00
2013-10-23,62,57,30,21,17,13,65,22,15,0.00,40.00,11,6,20,0.00
2013-10-24,63,50,26,22,17,13,65,31,15,0.00,40.00,8,4,15,0.00
2013-10-25,62,57,32,24,17,12,64,22,14,0.00,40.00,9,5,14,0.00
2013-10-26,62,51,30,22,14,-100,61,27,14,0.00,40.00,9,5,18,0.00
2013-10-27,58,52,29,20,16,13,57,25,17,0.00,40.00,16,12,35,0.00
2013-10-28,48,33,26,32,22,-100,100,73,25,0.00,40.00,15,10,27,2.00
2013-10-29,35,29,23,29,26,21,100,88,70,0.00,40.00,11,6,19,0.00
2013-10-31,43,36,20,29,24,17,88,66,44,0.00,40.00,6,4,11,0.00
2013-11-1,53,37,23,31,26,20,100,69,28,0.00,40.00,7,4,12,0.00
2013-11-2,53,43,23,25,18,11,86,43,18,0.00,40.00,15,8,28,0.00
2013-11-3,40,30,23,27,16,5,82,55,30,0.00,40.00,11,-7,19,0.00
2013-11-7,50,43,25,27,20,15,83,42,30,0.00,40.00,15,8,26,0.00
2013-11-8,55,44,27,20,18,16,71,36,23,0.00,40.00,10,-16,18,0.00
2013-11-9,55,46,27,24,12,-100,76,28,20,0.00,40.00,12,7,18,0.00
2013-11-10,57,49,19,20,9,0,79,24,11,0.00,40.00,13,7,20,0.00
2013-11-11,62,56,21,19,10,6,67,18,11,0.00,40.00,7,4,13,0.00
2013-11-12,59,53,36,20,13,10,51,21,15,0.00,40.00,8,4,13,0.00
2013-11-13,58,48,30,25,18,12,63,34,17,0.00,40.00,10,4,17,0.00
2013-11-14,50,44,35,17,15,13,44,31,22,0.00,40.00,19,10,36,0.00
2013-11-15,37,30,13,26,19,9,83,64,43,0.00,40.00,9,4,19,0.00
2013-11-16,42,32,14,19,12,-100,84,47,36,0.00,40.00,15,8,27,0.00
2013-11-17,48,37,21,23,19,14,79,50,30,0.00,40.00,12,6,20,0.00
2013-11-18,51,42,23,29,25,16,82,52,24,0.00,40.00,15,9,27,0.00
2013-11-19,45,38,20,32,28,17,89,66,48,0.00,40.00,11,6,18,0.00
2013-11-20,39,33,23,35,-5,-100,100,66,80,0.00,40.00,11,4,16,0.00
2013-11-21,32,24,20,28,-14,-100,100,62,73,0.00,40.00,0,0,0,0.00
2013-11-22,27,23,17,16,8,3,79,55,38,0.00,40.00,21,8,29,0.00
2013-11-23,30,25,20,16,8,-100,66,50,37,0.00,40.00,14,9,22,0.00
2013-11-24,37,28,16,21,17,11,86,65,43,0.00,40.00,9,5,14,0.00
2013-11-25,43,32,11,16,12,6,83,47,26,0.00,40.00,14,7,20,0.00
2013-11-26,51,35,17,22,16,10,75,49,24,0.00,40.00,8,4,10,0.00
2013-11-27,43,35,20,23,21,17,87,58,42,0.00,40.00,11,4,17,0.00
2013-11-28,39,30,18,27,23,16,91,75,56,0.00,40.00,9,3,13,0.00
2013-11-29,43,36,15,27,22,12,92,59,41,0.00,40.00,7,3,13,0.00
2013-11-30,47,37,19,28,17,-100,92,51,30,0.00,40.00,5,2,12,0.00
2013-12-1,46,39,17,26,20,14,91,50,34,0.00,40.00,9,5,15,0.00
2013-12-4,13,2,-10,3,-5,-15,86,74,56,0.00,40.00,11,3,17,0.00
2013-12-5,9,4,-24,1,-3,-31,83,73,67,0.00,40.00,7,4,11,0.00
2013-12-9,19,14,-5,-5,-10,-13,74,35,24,0.00,40.00,7,4,12,0.00
2013-12-10,35,27,2,11,8,-4,74,45,30,0.00,40.00,10,4,13,0.00
2013-12-11,38,20,10,15,8,3,82,61,35,0.00,40.00,9,5,12,0.00
2013-12-12,43,41,36,12,10,5,36,27,21,0.00,40.00,10,5,14,0.00
2013-12-13,35,27,13,19,12,4,77,57,34,0.00,40.00,12,7,18,0.00
2013-12-14,39,23,5,18,12,-100,90,67,32,0.00,40.00,10,5,14,0.00
2013-12-15,52,44,12,18,13,4,72,30,19,0.00,40.00,6,3,9,0.00
2013-12-16,51,45,20,18,14,7,77,32,18,0.00,40.00,7,4,10,0.00
2013-12-17,51,42,19,20,14,9,75,36,19,0.00,40.00,10,4,14,0.00
2013-12-18,45,37,33,35,27,-100,100,74,33,0.00,40.00,16,8,34,0.00
2013-12-19,36,26,17,32,0,-100,100,74,77,0.00,40.00,15,8,24,0.00
2013-12-20,23,18,13,16,12,3,91,77,48,0.00,40.00,11,6,16,0.00
2013-12-21,32,25,14,26,19,-100,93,80,68,0.00,40.00,15,5,25,0.00
2013-12-22,32,28,8,26,22,5,93,81,69,0.00,40.00,9,3,17,0.00
2013-12-23,42,32,13,28,24,10,93,75,55,0.00,40.00,7,3,11,0.00
2013-12-24,38,29,16,24,20,12,90,71,49,0.00,40.00,12,4,19,0.00
2013-12-25,44,28,12,15,6,-1,80,43,15,0.00,40.00,12,6,15,0.00
2013-12-26,49,42,18,8,3,-3,53,23,11,0.00,40.00,6,2,9,0.00
2013-12-27,51,42,22,17,12,6,65,31,16,0.00,40.00,6,3,10,0.00
2013-12-28,42,29,19,16,10,-100,70,49,21,0.00,40.00,16,6,27,0.00
2013-12-29,36,22,11,9,5,-2,72,51,21,0.00,40.00,11,6,15,0.00
2013-12-30,49,34,11,21,11,-6,80,40,25,0.00,40.00,6,2,12,0.00
2013-12-31,46,34,19,20,14,8,72,47,23,0.00,40.00,9,4,15,0.00
2014-1-1,44,29,14,22,17,10,88,64,35,0.00,40.00,7,2,10,0.00
2014-1-2,47,34,15,24,17,12,90,53,27,0.00,40.00,6,3,10,0.00